createdAt,value
2018-02-14T00:00:55.078Z,1012.48
2018-02-14T00:02:46.898Z,1012.50
2018-02-14T00:03:46.881Z,1012.53
2018-02-14T00:05:38.705Z,1012.56
2018-02-14T00:06:38.541Z,1012.55
2018-02-14T00:08:30.285Z,1012.56
2018-02-14T00:09:30.229Z,1012.52
2018-02-14T00:11:22.078Z,1012.57
2018-02-14T00:12:21.979Z,1012.61
2018-02-14T00:14:13.762Z,1012.57
2018-02-14T00:15:13.706Z,1012.62
2018-02-14T00:17:05.484Z,1012.62
2018-02-14T00:18:05.384Z,1012.63
2018-02-14T00:19:57.193Z,1012.64
2018-02-14T00:20:57.112Z,1012.64
2018-02-14T00:22:48.928Z,1012.64
2018-02-14T00:23:48.828Z,1012.63
2018-02-14T00:25:40.573Z,1012.67
2018-02-14T00:26:40.500Z,1012.66
2018-02-14T00:28:32.287Z,1012.63
2018-02-14T00:29:32.221Z,1012.63
2018-02-14T00:31:23.950Z,1012.70
2018-02-14T00:32:23.865Z,1012.69
2018-02-14T00:34:15.664Z,1012.73
2018-02-14T00:35:15.575Z,1012.69
2018-02-14T00:37:07.328Z,1012.72
2018-02-14T00:38:07.258Z,1012.74
2018-02-14T00:39:59.163Z,1012.73
2018-02-14T00:40:59.112Z,1012.77
2018-02-14T00:42:50.916Z,1012.75
2018-02-14T00:43:50.778Z,1012.79
2018-02-14T00:45:42.513Z,1012.85
2018-02-14T00:46:42.440Z,1012.81
2018-02-14T00:48:34.237Z,1012.85
2018-02-14T00:49:34.184Z,1012.83
2018-02-14T00:51:25.973Z,1012.85
2018-02-14T00:52:25.839Z,1012.83
2018-02-14T00:54:17.636Z,1012.91
2018-02-14T00:55:17.505Z,1012.87
2018-02-14T00:57:09.361Z,1012.90
2018-02-14T00:58:09.327Z,1012.91
2018-02-14T01:00:01.113Z,1012.93
2018-02-14T01:01:01.008Z,1012.91
2018-02-14T01:02:52.763Z,1012.91
2018-02-14T01:03:52.692Z,1012.91
2018-02-14T01:05:44.453Z,1012.91
2018-02-14T01:06:44.369Z,1012.90
2018-02-14T01:08:36.158Z,1012.96
2018-02-14T01:09:36.087Z,1012.92
2018-02-14T01:11:27.913Z,1012.93
2018-02-14T01:12:27.822Z,1012.93
2018-02-14T01:14:19.597Z,1012.98
2018-02-14T01:15:19.528Z,1012.94
2018-02-14T01:17:11.264Z,1012.94
2018-02-14T01:18:11.200Z,1012.98
2018-02-14T01:20:03.011Z,1012.94
2018-02-14T01:21:02.959Z,1012.98
2018-02-14T01:22:54.715Z,1012.99
2018-02-14T01:23:54.583Z,1013.01
2018-02-14T01:25:46.373Z,1013.02
2018-02-14T01:26:46.319Z,1012.95
2018-02-14T01:28:38.085Z,1012.98
2018-02-14T01:29:37.994Z,1013.01
2018-02-14T01:31:29.851Z,1013.02
2018-02-14T01:32:29.695Z,1013.05
2018-02-14T01:34:21.520Z,1013.05
2018-02-14T01:35:21.432Z,1013.03
2018-02-14T01:37:13.205Z,1013.01
2018-02-14T01:38:13.158Z,1012.97
2018-02-14T01:40:05.063Z,1013.00
2018-02-14T01:41:04.773Z,1013.03
2018-02-14T01:42:56.831Z,1013.03
2018-02-14T01:43:56.727Z,1013.00
2018-02-14T01:45:48.477Z,1012.99
2018-02-14T01:46:48.431Z,1012.94
2018-02-14T01:48:40.152Z,1012.99
2018-02-14T01:49:40.091Z,1012.97
2018-02-14T01:51:31.854Z,1012.99
2018-02-14T01:52:31.748Z,1013.00
2018-02-14T01:54:23.571Z,1013.04
2018-02-14T01:55:23.460Z,1013.03
2018-02-14T01:57:15.232Z,1013.02
2018-02-14T01:58:15.135Z,1013.03
2018-02-14T02:00:06.930Z,1013.00
2018-02-14T02:01:06.907Z,1012.99
2018-02-14T02:02:58.638Z,1012.97
2018-02-14T02:03:58.538Z,1012.98
2018-02-14T02:05:50.290Z,1012.98
2018-02-14T02:06:50.198Z,1012.98
2018-02-14T02:08:42.113Z,1013.04
2018-02-14T02:09:41.958Z,1012.99
2018-02-14T02:11:33.759Z,1012.99
2018-02-14T02:12:33.676Z,1012.98
2018-02-14T02:14:25.441Z,1013.02
2018-02-14T02:15:25.358Z,1013.03
2018-02-14T02:17:17.091Z,1013.02
2018-02-14T02:18:17.043Z,1013.02
2018-02-14T02:20:08.793Z,1013.00
2018-02-14T02:21:08.822Z,1013.02
2018-02-14T02:23:00.484Z,1013.01
2018-02-14T02:24:00.388Z,1012.99
2018-02-14T02:25:52.200Z,1013.01
2018-02-14T02:26:52.106Z,1013.04
2018-02-14T02:28:43.967Z,1013.06
2018-02-14T02:29:44.025Z,1013.02
2018-02-14T02:31:35.633Z,1013.09
2018-02-14T02:32:35.560Z,1013.08
2018-02-14T02:34:27.344Z,1013.07
2018-02-14T02:35:27.242Z,1013.05
2018-02-14T02:37:19.045Z,1013.07
2018-02-14T02:38:18.967Z,1013.08
2018-02-14T02:40:10.733Z,1013.12
2018-02-14T02:41:10.644Z,1013.13
2018-02-14T02:43:02.405Z,1013.11
2018-02-14T02:44:02.329Z,1013.10
2018-02-14T02:45:54.113Z,1013.14
2018-02-14T02:46:54.008Z,1013.10
2018-02-14T02:48:45.816Z,1013.13
2018-02-14T02:49:45.675Z,1013.12
2018-02-14T02:51:37.489Z,1013.17
2018-02-14T02:52:37.422Z,1013.12
2018-02-14T02:54:29.148Z,1013.13
2018-02-14T02:55:29.125Z,1013.18
2018-02-14T02:57:20.864Z,1013.15
2018-02-14T02:58:20.767Z,1013.16
2018-02-14T03:00:12.678Z,1013.20
2018-02-14T03:01:12.586Z,1013.18
2018-02-14T03:03:04.311Z,1013.18
2018-02-14T03:04:04.219Z,1013.23
2018-02-14T03:05:56.164Z,1013.18
2018-02-14T03:06:55.994Z,1013.21
2018-02-14T03:08:47.755Z,1013.20
2018-02-14T03:09:47.682Z,1013.25
2018-02-14T03:11:39.526Z,1013.26
2018-02-14T03:12:39.457Z,1013.28
2018-02-14T03:14:31.250Z,1013.29
2018-02-14T03:15:31.202Z,1013.26
2018-02-14T03:17:23.041Z,1013.29
2018-02-14T03:18:22.934Z,1013.33
2018-02-14T03:20:14.752Z,1013.39
2018-02-14T03:21:14.669Z,1013.35
2018-02-14T03:23:06.461Z,1013.36
2018-02-14T03:24:06.379Z,1013.38
2018-02-14T03:25:58.161Z,1013.41
2018-02-14T03:26:58.047Z,1013.42
2018-02-14T03:28:49.841Z,1013.45
2018-02-14T03:29:49.744Z,1013.41
2018-02-14T03:31:41.645Z,1013.48
2018-02-14T03:32:41.558Z,1013.50
2018-02-14T03:34:33.308Z,1013.45
2018-02-14T03:35:33.232Z,1013.49
2018-02-14T03:37:25.006Z,1013.52
2018-02-14T03:38:24.919Z,1013.53
2018-02-14T03:40:16.671Z,1013.52
2018-02-14T03:41:16.579Z,1013.52
2018-02-14T03:43:08.552Z,1013.45
2018-02-14T03:44:08.462Z,1013.48
2018-02-14T03:46:00.236Z,1013.47
2018-02-14T03:47:00.181Z,1013.45
2018-02-14T03:48:51.957Z,1013.51
2018-02-14T03:49:51.862Z,1013.49
2018-02-14T03:51:43.593Z,1013.54
2018-02-14T03:52:43.546Z,1013.58
2018-02-14T03:54:35.269Z,1013.61
2018-02-14T03:55:35.192Z,1013.58
2018-02-14T03:57:26.923Z,1013.58
2018-02-14T03:58:26.845Z,1013.58
2018-02-14T04:00:18.661Z,1013.59
2018-02-14T04:01:18.536Z,1013.61
2018-02-14T04:03:10.331Z,1013.60
2018-02-14T04:04:10.221Z,1013.64
2018-02-14T04:06:02.066Z,1013.67
2018-02-14T04:07:01.965Z,1013.69
2018-02-14T04:08:53.770Z,1013.68
2018-02-14T04:09:53.672Z,1013.72
2018-02-14T04:11:45.504Z,1013.76
2018-02-14T04:12:45.414Z,1013.75
2018-02-14T04:14:37.230Z,1013.76
2018-02-14T04:15:37.155Z,1013.79
2018-02-14T04:17:28.907Z,1013.82
2018-02-14T04:18:28.849Z,1013.83
2018-02-14T04:20:20.578Z,1013.85
2018-02-14T04:21:20.489Z,1013.86
2018-02-14T04:23:12.553Z,1013.88
2018-02-14T04:24:12.414Z,1013.87
2018-02-14T04:26:04.900Z,1013.93
2018-02-14T04:27:04.197Z,1013.97
2018-02-14T04:28:56.001Z,1013.92
2018-02-14T04:29:55.921Z,1013.97
2018-02-14T04:31:47.736Z,1014.00
2018-02-14T04:32:47.652Z,1014.07
2018-02-14T04:34:39.369Z,1014.04
2018-02-14T04:35:39.334Z,1014.05
2018-02-14T04:37:31.227Z,1014.08
2018-02-14T04:38:31.139Z,1014.09
2018-02-14T04:40:22.930Z,1014.08
2018-02-14T04:41:22.852Z,1014.08
2018-02-14T04:43:14.647Z,1014.07
2018-02-14T04:44:14.522Z,1014.07
2018-02-14T04:46:06.410Z,1014.08
2018-02-14T04:47:06.304Z,1014.15
2018-02-14T04:48:58.288Z,1014.11
2018-02-14T04:49:58.197Z,1014.14
2018-02-14T04:51:50.075Z,1014.09
2018-02-14T04:52:49.994Z,1014.13
2018-02-14T04:54:41.775Z,1014.12
2018-02-14T04:55:41.702Z,1014.13
2018-02-14T04:57:34.477Z,1014.13
2018-02-14T04:58:34.379Z,1014.14
2018-02-14T05:00:26.128Z,1014.14
2018-02-14T05:01:26.048Z,1014.13
2018-02-14T05:03:17.825Z,1014.13
2018-02-14T05:04:17.747Z,1014.16
2018-02-14T05:06:09.520Z,1014.18
2018-02-14T05:07:09.392Z,1014.12
2018-02-14T05:09:01.343Z,1014.18
2018-02-14T05:10:01.338Z,1014.15
2018-02-14T05:11:53.303Z,1014.17
2018-02-14T05:12:53.273Z,1014.21
2018-02-14T05:14:45.229Z,1014.25
2018-02-14T05:15:45.104Z,1014.22
2018-02-14T05:17:36.904Z,1014.30
2018-02-14T05:18:36.823Z,1014.31
2018-02-14T05:20:28.599Z,1014.31
2018-02-14T05:21:28.500Z,1014.32
2018-02-14T05:23:20.314Z,1014.35
2018-02-14T05:24:20.197Z,1014.37
2018-02-14T05:26:11.963Z,1014.41
2018-02-14T05:27:11.870Z,1014.38
2018-02-14T05:29:03.726Z,1014.42
2018-02-14T05:30:03.596Z,1014.43
2018-02-14T05:31:55.354Z,1014.40
2018-02-14T05:32:55.255Z,1014.43
2018-02-14T05:34:47.312Z,1014.42
2018-02-14T05:35:47.104Z,1014.47
2018-02-14T05:37:39.153Z,1014.46
2018-02-14T05:38:38.929Z,1014.50
2018-02-14T05:40:30.699Z,1014.53
2018-02-14T05:41:30.573Z,1014.52
2018-02-14T05:43:22.339Z,1014.55
2018-02-14T05:44:22.223Z,1014.59
2018-02-14T05:46:14.072Z,1014.58
2018-02-14T05:47:13.967Z,1014.59
2018-02-14T05:49:06.804Z,1014.62
2018-02-14T05:50:06.702Z,1014.67
2018-02-14T05:51:58.647Z,1014.65
2018-02-14T05:52:58.439Z,1014.66
2018-02-14T05:54:50.202Z,1014.69
2018-02-14T05:55:50.138Z,1014.73
2018-02-14T05:57:41.922Z,1014.75
2018-02-14T05:58:41.803Z,1014.77
2018-02-14T06:00:33.659Z,1014.82
2018-02-14T06:01:33.602Z,1014.78
2018-02-14T06:03:25.455Z,1014.85
2018-02-14T06:04:25.318Z,1014.85
2018-02-14T06:06:17.081Z,1014.85
2018-02-14T06:07:17.038Z,1014.82
2018-02-14T06:09:08.773Z,1014.87
2018-02-14T06:10:08.794Z,1014.88
2018-02-14T06:12:00.512Z,1014.91
2018-02-14T06:13:00.432Z,1014.92
2018-02-14T06:14:52.223Z,1014.94
2018-02-14T06:15:52.147Z,1014.99
2018-02-14T06:17:43.981Z,1015.01
2018-02-14T06:18:43.833Z,1014.99
2018-02-14T06:20:35.675Z,1015.02
2018-02-14T06:21:35.724Z,1015.05
2018-02-14T06:23:27.327Z,1015.02
2018-02-14T06:24:27.305Z,1015.06
2018-02-14T06:26:19.202Z,1015.05
2018-02-14T06:27:19.113Z,1015.04
2018-02-14T06:29:10.915Z,1015.04
2018-02-14T06:30:10.789Z,1015.07
2018-02-14T06:32:02.689Z,1015.08
2018-02-14T06:33:02.607Z,1015.06
2018-02-14T06:34:54.687Z,1015.07
2018-02-14T06:35:54.512Z,1015.08
2018-02-14T06:37:46.297Z,1015.10
2018-02-14T06:38:46.203Z,1015.10
2018-02-14T06:40:37.968Z,1015.12
2018-02-14T06:41:37.849Z,1015.13
2018-02-14T06:43:29.686Z,1015.13
2018-02-14T06:44:29.515Z,1015.15
2018-02-14T06:46:21.302Z,1015.14
2018-02-14T06:47:21.375Z,1015.19
2018-02-14T06:49:13.217Z,1015.19
2018-02-14T06:50:13.083Z,1015.18
2018-02-14T06:52:05.015Z,1015.24
2018-02-14T06:53:04.860Z,1015.29
2018-02-14T06:54:56.659Z,1015.28
2018-02-14T06:55:56.731Z,1015.28
2018-02-14T06:57:48.398Z,1015.31
2018-02-14T06:58:48.324Z,1015.32
2018-02-14T07:00:40.122Z,1015.30
2018-02-14T07:01:40.011Z,1015.33
2018-02-14T07:03:31.788Z,1015.38
2018-02-14T07:04:31.738Z,1015.41
2018-02-14T07:06:23.529Z,1015.37
2018-02-14T07:07:23.417Z,1015.43
2018-02-14T07:09:15.194Z,1015.40
2018-02-14T07:10:15.091Z,1015.42
2018-02-14T07:12:06.851Z,1015.49
2018-02-14T07:13:06.878Z,1015.51
2018-02-14T07:14:58.573Z,1015.53
2018-02-14T07:15:58.620Z,1015.56
2018-02-14T07:17:50.593Z,1015.59
2018-02-14T07:18:50.381Z,1015.60
2018-02-14T07:20:42.267Z,1015.60
2018-02-14T07:21:42.183Z,1015.62
2018-02-14T07:23:34.932Z,1015.65
2018-02-14T07:24:34.878Z,1015.64
2018-02-14T07:26:26.831Z,1015.65
2018-02-14T07:27:26.975Z,1015.66
2018-02-14T07:29:18.533Z,1015.66
2018-02-14T07:30:18.478Z,1015.68
2018-02-14T07:32:10.466Z,1015.71
2018-02-14T07:33:10.323Z,1015.66
2018-02-14T07:35:02.310Z,1015.67
2018-02-14T07:36:02.057Z,1015.68
2018-02-14T07:37:53.842Z,1015.67
2018-02-14T07:38:53.741Z,1015.68
2018-02-14T07:40:45.495Z,1015.74
2018-02-14T07:41:45.397Z,1015.75
2018-02-14T07:43:37.200Z,1015.73
2018-02-14T07:44:37.166Z,1015.75
2018-02-14T07:46:28.908Z,1015.76
2018-02-14T07:47:28.815Z,1015.86
2018-02-14T07:49:20.788Z,1016.07
2018-02-14T07:50:20.881Z,1016.09
2018-02-14T07:52:12.856Z,1016.19
2018-02-14T07:53:12.828Z,1016.24
2018-02-14T07:55:04.555Z,1016.33
2018-02-14T07:56:04.506Z,1016.40
2018-02-14T07:57:56.264Z,1016.38
2018-02-14T07:58:56.177Z,1016.45
2018-02-14T08:00:48.502Z,1016.37
2018-02-14T08:01:47.870Z,1016.32
2018-02-14T08:03:39.686Z,1016.21
2018-02-14T08:04:39.762Z,1016.27
2018-02-14T08:06:31.584Z,1016.41
2018-02-14T08:07:31.476Z,1016.37
2018-02-14T08:09:23.692Z,1016.30
2018-02-14T08:10:23.618Z,1016.32
2018-02-14T08:12:15.629Z,1016.34
2018-02-14T08:13:15.596Z,1016.39
2018-02-14T08:15:07.405Z,1016.41
2018-02-14T08:16:07.308Z,1016.42
2018-02-14T08:18:00.083Z,1016.47
2018-02-14T08:19:00.036Z,1016.37
2018-02-14T08:20:52.835Z,1016.32
2018-02-14T08:21:52.715Z,1016.35
2018-02-14T08:23:45.508Z,1016.29
2018-02-14T08:24:45.432Z,1016.28
2018-02-14T08:26:38.352Z,1016.35
2018-02-14T08:27:38.315Z,1016.47
2018-02-14T08:29:30.279Z,1016.44
2018-02-14T08:30:30.097Z,1016.44
2018-02-14T08:32:21.864Z,1016.52
2018-02-14T08:33:21.833Z,1016.55
2018-02-14T08:35:13.830Z,1016.38
2018-02-14T08:36:13.698Z,1016.50
2018-02-14T08:38:06.512Z,1016.55
2018-02-14T08:39:06.520Z,1016.60
2018-02-14T08:40:58.345Z,1016.69
2018-02-14T08:41:58.270Z,1016.76
2018-02-14T08:43:50.133Z,1016.73
2018-02-14T08:44:50.085Z,1016.74
2018-02-14T08:46:42.880Z,1016.63
2018-02-14T08:47:42.926Z,1016.71
2018-02-14T08:49:35.030Z,1016.81
2018-02-14T08:50:34.777Z,1016.83
2018-02-14T08:52:26.485Z,1016.99
2018-02-14T08:53:26.466Z,1016.97
2018-02-14T08:55:19.266Z,1016.98
2018-02-14T08:56:19.257Z,1017.03
2018-02-14T08:58:11.942Z,1017.08
2018-02-14T08:59:12.011Z,1017.10
2018-02-14T09:01:03.799Z,1017.13
2018-02-14T09:02:03.652Z,1017.14
2018-02-14T09:03:55.443Z,1017.24
2018-02-14T09:04:55.559Z,1017.27
2018-02-14T09:06:47.194Z,1017.37
2018-02-14T09:07:47.159Z,1017.33
2018-02-14T09:09:39.925Z,1017.32
2018-02-14T09:10:39.904Z,1017.29
2018-02-14T09:12:32.007Z,1017.30
2018-02-14T09:13:31.811Z,1017.31
2018-02-14T09:15:24.593Z,1017.33
2018-02-14T09:16:24.431Z,1017.36
2018-02-14T09:18:17.204Z,1017.30
2018-02-14T09:19:17.139Z,1017.28
2018-02-14T09:21:10.072Z,1017.26
2018-02-14T09:22:09.898Z,1017.22
2018-02-14T09:24:02.819Z,1017.17
2018-02-14T09:25:02.728Z,1017.13
2018-02-14T09:26:55.509Z,1017.10
2018-02-14T09:27:55.462Z,1017.12
2018-02-14T09:29:48.266Z,1017.12
2018-02-14T09:30:48.193Z,1017.04
2018-02-14T09:32:40.107Z,1017.09
2018-02-14T09:33:40.015Z,1017.10
2018-02-14T09:35:32.823Z,1017.13
2018-02-14T09:36:32.761Z,1017.15
2018-02-14T09:38:24.591Z,1017.14
2018-02-14T09:39:24.500Z,1017.14
2018-02-14T09:41:16.547Z,1017.21
2018-02-14T09:42:16.368Z,1017.18
2018-02-14T09:44:08.193Z,1017.18
2018-02-14T09:45:08.102Z,1017.21
2018-02-14T09:47:00.933Z,1017.18
2018-02-14T09:48:00.892Z,1017.19
2018-02-14T09:49:52.850Z,1017.24
2018-02-14T09:50:52.928Z,1017.22
2018-02-14T09:52:44.789Z,1017.22
2018-02-14T09:53:44.720Z,1017.17
2018-02-14T09:55:37.514Z,1017.24
2018-02-14T09:56:37.449Z,1017.23
2018-02-14T09:58:30.469Z,1017.26
2018-02-14T09:59:30.398Z,1017.23
2018-02-14T10:01:24.923Z,1017.31
2018-02-14T10:02:24.668Z,1017.30
2018-02-14T10:04:16.465Z,1017.32
2018-02-14T10:05:16.438Z,1017.36
2018-02-14T10:07:09.239Z,1017.33
2018-02-14T10:08:09.151Z,1017.33
2018-02-14T10:10:01.034Z,1017.34
2018-02-14T10:11:00.919Z,1017.37
2018-02-14T10:12:52.837Z,1017.32
2018-02-14T10:13:52.746Z,1017.35
2018-02-14T10:15:44.579Z,1017.34
2018-02-14T10:16:44.502Z,1017.34
2018-02-14T10:18:37.376Z,1017.38
2018-02-14T10:19:37.306Z,1017.40
2018-02-14T10:21:29.125Z,1017.38
2018-02-14T10:22:29.073Z,1017.34
2018-02-14T10:24:20.974Z,1017.33
2018-02-14T10:25:20.879Z,1017.30
2018-02-14T10:27:13.688Z,1017.32
2018-02-14T10:28:13.647Z,1017.34
2018-02-14T10:30:05.632Z,1017.27
2018-02-14T10:31:05.542Z,1017.32
2018-02-14T10:32:58.385Z,1017.25
2018-02-14T10:33:58.303Z,1017.26
2018-02-14T10:35:51.121Z,1017.28
2018-02-14T10:36:51.133Z,1017.31
2018-02-14T10:38:43.922Z,1017.30
2018-02-14T10:39:44.005Z,1017.23
2018-02-14T10:41:35.908Z,1017.29
2018-02-14T10:42:35.747Z,1017.23
2018-02-14T10:44:27.804Z,1017.25
2018-02-14T10:45:27.679Z,1017.22
2018-02-14T10:47:19.545Z,1017.21
2018-02-14T10:48:19.494Z,1017.22
2018-02-14T10:50:11.361Z,1017.25
2018-02-14T10:51:11.277Z,1017.23
2018-02-14T10:53:03.171Z,1017.19
2018-02-14T10:54:03.102Z,1017.17
2018-02-14T10:55:54.879Z,1017.17
2018-02-14T10:56:54.869Z,1017.14
2018-02-14T10:58:46.599Z,1017.13
2018-02-14T10:59:46.543Z,1017.11
2018-02-14T11:01:38.580Z,1017.16
2018-02-14T11:02:38.476Z,1017.14
2018-02-14T11:04:30.404Z,1017.12
2018-02-14T11:05:30.317Z,1017.15
2018-02-14T11:07:22.207Z,1017.14
2018-02-14T11:08:22.138Z,1017.15
2018-02-14T11:10:13.947Z,1017.07
2018-02-14T11:11:13.837Z,1017.00
2018-02-14T11:13:06.668Z,1017.02
2018-02-14T11:14:06.562Z,1016.97
2018-02-14T11:15:58.462Z,1016.95
2018-02-14T11:16:58.386Z,1016.98
2018-02-14T11:18:50.369Z,1016.94
2018-02-14T11:19:50.258Z,1017.01
2018-02-14T11:21:42.068Z,1016.95
2018-02-14T11:22:41.998Z,1016.98
2018-02-14T11:24:33.829Z,1016.94
2018-02-14T11:25:33.714Z,1016.93
2018-02-14T11:27:25.489Z,1016.91
2018-02-14T11:28:25.422Z,1016.89
2018-02-14T11:30:17.286Z,1016.94
2018-02-14T11:31:17.214Z,1016.98
2018-02-14T11:33:09.186Z,1016.95
2018-02-14T11:34:09.096Z,1016.98
2018-02-14T11:36:00.958Z,1016.96
2018-02-14T11:37:00.837Z,1016.95
2018-02-14T11:38:52.614Z,1016.92
2018-02-14T11:39:52.609Z,1016.94
2018-02-14T11:41:44.387Z,1016.97
2018-02-14T11:42:44.301Z,1016.95
2018-02-14T11:44:36.088Z,1016.95
2018-02-14T11:45:36.058Z,1016.96
2018-02-14T11:47:27.846Z,1016.99
2018-02-14T11:48:27.717Z,1016.98
2018-02-14T11:50:19.484Z,1017.02
2018-02-14T11:51:19.410Z,1017.04
2018-02-14T11:53:11.186Z,1017.02
2018-02-14T11:54:11.117Z,1017.05
2018-02-14T11:56:02.916Z,1017.09
2018-02-14T11:57:02.847Z,1017.00
2018-02-14T11:58:54.640Z,1017.10
2018-02-14T11:59:54.560Z,1017.09
2018-02-14T12:01:47.393Z,1017.09
2018-02-14T12:02:47.329Z,1017.05
2018-02-14T12:04:39.273Z,1017.12
2018-02-14T12:05:39.173Z,1017.13
2018-02-14T12:07:30.943Z,1017.10
2018-02-14T12:08:30.866Z,1017.09
2018-02-14T12:10:22.629Z,1017.10
2018-02-14T12:11:22.548Z,1017.05
2018-02-14T12:13:14.318Z,1017.09
2018-02-14T12:14:14.249Z,1017.11
2018-02-14T12:16:06.100Z,1017.08
2018-02-14T12:17:06.035Z,1017.11
2018-02-14T12:18:57.819Z,1017.05
2018-02-14T12:19:57.746Z,1017.04
2018-02-14T12:21:49.568Z,1017.06
2018-02-14T12:22:49.427Z,1017.02
2018-02-14T12:24:41.292Z,1016.99
2018-02-14T12:25:41.222Z,1017.02
2018-02-14T12:27:33.243Z,1017.00
2018-02-14T12:28:32.928Z,1016.98
2018-02-14T12:30:24.819Z,1016.94
2018-02-14T12:31:24.594Z,1016.99
2018-02-14T12:33:16.390Z,1016.98
2018-02-14T12:34:16.292Z,1017.01
2018-02-14T12:36:09.360Z,1017.01
2018-02-14T12:37:09.319Z,1017.07
2018-02-14T12:39:01.161Z,1017.06
2018-02-14T12:40:01.034Z,1017.06
2018-02-14T12:41:52.893Z,1017.06
2018-02-14T12:42:52.875Z,1017.06
2018-02-14T12:44:45.103Z,1017.07
2018-02-14T12:45:44.883Z,1017.11
2018-02-14T12:47:36.745Z,1017.06
2018-02-14T12:48:36.587Z,1017.03
2018-02-14T12:50:28.420Z,1017.05
2018-02-14T12:51:28.356Z,1017.00
2018-02-14T12:53:20.128Z,1017.05
2018-02-14T12:54:20.053Z,1017.05
2018-02-14T12:56:12.036Z,1017.14
2018-02-14T12:57:12.005Z,1017.07
2018-02-14T12:59:03.782Z,1017.12
2018-02-14T13:00:03.675Z,1017.09
2018-02-14T13:01:55.563Z,1017.13
2018-02-14T13:02:55.541Z,1017.15
2018-02-14T13:04:47.292Z,1017.14
2018-02-14T13:05:47.219Z,1017.18
2018-02-14T13:07:39.018Z,1017.21
2018-02-14T13:08:38.949Z,1017.16
2018-02-14T13:10:30.742Z,1017.17
2018-02-14T13:11:30.668Z,1017.17
2018-02-14T13:13:22.423Z,1017.12
2018-02-14T13:14:22.397Z,1017.11
2018-02-14T13:16:14.326Z,1017.14
2018-02-14T13:17:14.238Z,1017.12
2018-02-14T13:19:06.322Z,1017.09
2018-02-14T13:20:06.235Z,1017.11
2018-02-14T13:21:58.015Z,1017.11
2018-02-14T13:22:57.918Z,1017.10
2018-02-14T13:24:49.701Z,1017.08
2018-02-14T13:25:49.630Z,1017.05
2018-02-14T13:27:41.541Z,1017.00
2018-02-14T13:28:41.398Z,1017.00
2018-02-14T13:30:33.228Z,1017.00
2018-02-14T13:31:33.166Z,1017.00
2018-02-14T13:33:25.053Z,1016.99
2018-02-14T13:34:24.945Z,1017.01
2018-02-14T13:36:16.768Z,1017.02
2018-02-14T13:37:16.676Z,1016.98
2018-02-14T13:39:08.523Z,1017.02
2018-02-14T13:40:08.406Z,1017.06
2018-02-14T13:42:00.426Z,1017.03
2018-02-14T13:43:00.320Z,1017.05
2018-02-14T13:44:53.197Z,1017.02
2018-02-14T13:45:53.090Z,1016.98
2018-02-14T13:47:44.853Z,1016.98
2018-02-14T13:48:44.777Z,1016.95
2018-02-14T13:50:36.532Z,1016.90
2018-02-14T13:51:36.472Z,1016.90
2018-02-14T13:53:29.412Z,1016.89
2018-02-14T13:54:29.322Z,1016.90
2018-02-14T13:56:21.140Z,1016.87
2018-02-14T13:57:21.021Z,1016.89
2018-02-14T13:59:12.843Z,1016.86
2018-02-14T14:00:12.741Z,1016.88
2018-02-14T14:02:04.685Z,1016.90
2018-02-14T14:03:04.538Z,1016.86
2018-02-14T14:04:56.499Z,1016.83
2018-02-14T14:05:56.418Z,1016.87
2018-02-14T14:07:48.242Z,1016.90
2018-02-14T14:08:48.173Z,1016.89
2018-02-14T14:10:39.897Z,1016.93
2018-02-14T14:11:39.830Z,1016.95
2018-02-14T14:13:31.605Z,1016.97
2018-02-14T14:14:31.508Z,1016.97
2018-02-14T14:16:23.289Z,1017.00
2018-02-14T14:17:23.211Z,1017.10
2018-02-14T14:19:15.064Z,1017.12
2018-02-14T14:20:14.983Z,1017.11
2018-02-14T14:22:06.785Z,1017.11
2018-02-14T14:23:06.797Z,1017.13
2018-02-14T14:24:58.837Z,1017.14
2018-02-14T14:25:58.725Z,1017.11
2018-02-14T14:27:50.532Z,1017.16
2018-02-14T14:28:50.483Z,1017.16
2018-02-14T14:30:42.353Z,1017.13
2018-02-14T14:31:42.256Z,1017.15
2018-02-14T14:33:34.148Z,1017.17
2018-02-14T14:34:33.987Z,1017.17
2018-02-14T14:36:25.779Z,1017.19
2018-02-14T14:37:25.678Z,1017.16
2018-02-14T14:39:17.533Z,1017.15
2018-02-14T14:40:17.461Z,1017.19
2018-02-14T14:42:09.236Z,1017.24
2018-02-14T14:43:09.148Z,1017.23
2018-02-14T14:45:00.927Z,1017.24
2018-02-14T14:46:00.949Z,1017.28
2018-02-14T14:47:52.672Z,1017.25
2018-02-14T14:48:52.633Z,1017.25
2018-02-14T14:50:44.511Z,1017.25
2018-02-14T14:51:44.381Z,1017.25
2018-02-14T14:53:36.318Z,1017.31
2018-02-14T14:54:36.227Z,1017.37
2018-02-14T14:56:28.103Z,1017.39
2018-02-14T14:57:28.045Z,1017.37
2018-02-14T14:59:20.004Z,1017.37
2018-02-14T15:00:19.893Z,1017.43
2018-02-14T15:02:11.643Z,1017.42
2018-02-14T15:03:11.570Z,1017.42
2018-02-14T15:05:03.415Z,1017.39
2018-02-14T15:06:03.318Z,1017.41
2018-02-14T15:07:55.089Z,1017.43
2018-02-14T15:08:55.014Z,1017.40
2018-02-14T15:10:46.938Z,1017.46
2018-02-14T15:11:46.850Z,1017.45
2018-02-14T15:13:38.645Z,1017.38
2018-02-14T15:14:38.571Z,1017.42
2018-02-14T15:16:30.410Z,1017.43
2018-02-14T15:17:30.394Z,1017.39
2018-02-14T15:19:22.122Z,1017.43
2018-02-14T15:20:22.026Z,1017.41
2018-02-14T15:22:13.842Z,1017.41
2018-02-14T15:23:13.775Z,1017.49
2018-02-14T15:25:05.561Z,1017.44
2018-02-14T15:26:05.516Z,1017.47
2018-02-14T15:27:57.362Z,1017.49
2018-02-14T15:28:57.283Z,1017.53
2018-02-14T15:30:49.124Z,1017.57
2018-02-14T15:31:48.988Z,1017.56
2018-02-14T15:33:40.801Z,1017.58
2018-02-14T15:34:40.723Z,1017.57
2018-02-14T15:36:32.553Z,1017.57
2018-02-14T15:37:32.450Z,1017.59
2018-02-14T15:39:24.314Z,1017.56
2018-02-14T15:40:24.284Z,1017.60
2018-02-14T15:42:16.030Z,1017.56
2018-02-14T15:43:15.949Z,1017.56
2018-02-14T15:45:07.722Z,1017.63
2018-02-14T15:46:07.658Z,1017.58
2018-02-14T15:47:59.522Z,1017.58
2018-02-14T15:48:59.415Z,1017.60
2018-02-14T15:50:51.255Z,1017.59
2018-02-14T15:51:51.305Z,1017.57
2018-02-14T15:53:42.978Z,1017.56
2018-02-14T15:54:42.894Z,1017.54
2018-02-14T15:56:34.712Z,1017.54
2018-02-14T15:57:34.637Z,1017.52
2018-02-14T15:59:26.414Z,1017.56
2018-02-14T16:00:26.314Z,1017.54
2018-02-14T16:02:18.155Z,1017.52
2018-02-14T16:03:18.059Z,1017.52
2018-02-14T16:05:09.949Z,1017.54
2018-02-14T16:06:09.878Z,1017.57
2018-02-14T16:08:01.653Z,1017.53
2018-02-14T16:09:01.589Z,1017.54
2018-02-14T16:10:53.364Z,1017.54
2018-02-14T16:11:53.285Z,1017.59
2018-02-14T16:13:45.170Z,1017.53
2018-02-14T16:14:45.086Z,1017.58
2018-02-14T16:16:36.866Z,1017.58
2018-02-14T16:17:36.809Z,1017.57
2018-02-14T16:19:28.620Z,1017.59
2018-02-14T16:20:28.485Z,1017.57
2018-02-14T16:22:20.428Z,1017.56
2018-02-14T16:23:20.364Z,1017.56
2018-02-14T16:25:12.139Z,1017.61
2018-02-14T16:26:12.077Z,1017.55
2018-02-14T16:28:03.916Z,1017.59
2018-02-14T16:29:03.862Z,1017.57
2018-02-14T16:30:55.839Z,1017.62
2018-02-14T16:31:55.623Z,1017.59
2018-02-14T16:33:47.417Z,1017.61
2018-02-14T16:34:47.317Z,1017.61
2018-02-14T16:36:39.081Z,1017.61
2018-02-14T16:37:39.082Z,1017.62
2018-02-14T16:39:30.787Z,1017.63
2018-02-14T16:40:30.726Z,1017.65
2018-02-14T16:42:22.557Z,1017.66
2018-02-14T16:43:22.424Z,1017.69
2018-02-14T16:45:14.205Z,1017.66
2018-02-14T16:46:14.081Z,1017.66
2018-02-14T16:48:05.875Z,1017.64
2018-02-14T16:49:05.802Z,1017.63
2018-02-14T16:50:57.644Z,1017.60
2018-02-14T16:51:57.552Z,1017.66
2018-02-14T16:53:49.340Z,1017.64
2018-02-14T16:54:49.239Z,1017.60
2018-02-14T16:56:41.055Z,1017.68
2018-02-14T16:57:40.947Z,1017.66
2018-02-14T16:59:32.721Z,1017.69
2018-02-14T17:00:32.627Z,1017.70
2018-02-14T17:02:24.512Z,1017.72
2018-02-14T17:03:24.440Z,1017.73
2018-02-14T17:05:16.186Z,1017.73
2018-02-14T17:06:16.105Z,1017.72
2018-02-14T17:08:07.844Z,1017.81
2018-02-14T17:09:07.772Z,1017.76
2018-02-14T17:10:59.546Z,1017.80
2018-02-14T17:11:59.433Z,1017.75
2018-02-14T17:13:51.195Z,1017.76
2018-02-14T17:14:51.128Z,1017.72
2018-02-14T17:16:42.917Z,1017.80
2018-02-14T17:17:42.816Z,1017.79
2018-02-14T17:19:34.561Z,1017.81